createdAt,value
2018-09-22T00:01:27.193Z,14.20
2018-09-22T00:03:55.354Z,14.00
2018-09-22T00:06:23.512Z,14.00
2018-09-22T00:08:51.688Z,14.00
2018-09-22T00:11:19.854Z,13.90
2018-09-22T00:13:48.018Z,13.90
2018-09-22T00:16:16.172Z,13.90
2018-09-22T00:18:44.332Z,13.80
2018-09-22T00:21:12.695Z,13.80
2018-09-22T00:23:40.860Z,13.80
2018-09-22T00:26:09.010Z,13.70
2018-09-22T00:28:37.175Z,13.70
2018-09-22T00:31:05.379Z,13.70
2018-09-22T00:33:33.545Z,13.60
2018-09-22T00:36:01.696Z,13.60
2018-09-22T00:38:29.846Z,13.60
2018-09-22T00:40:57.980Z,13.50
2018-09-22T00:43:26.139Z,13.50
2018-09-22T00:45:54.283Z,13.50
2018-09-22T00:48:22.457Z,13.50
2018-09-22T00:50:50.600Z,13.50
2018-09-22T00:53:18.742Z,13.40
2018-09-22T00:55:46.879Z,13.40
2018-09-22T00:58:15.017Z,13.30
2018-09-22T01:00:43.160Z,13.40
2018-09-22T01:03:11.305Z,13.30
2018-09-22T01:05:39.481Z,13.30
2018-09-22T01:08:07.663Z,13.20
2018-09-22T01:10:35.814Z,13.20
2018-09-22T01:13:03.953Z,13.10
2018-09-22T01:15:32.159Z,13.00
2018-09-22T01:18:00.232Z,13.00
2018-09-22T01:20:28.402Z,13.00
2018-09-22T01:22:56.526Z,12.90
2018-09-22T01:25:24.674Z,12.90
2018-09-22T01:27:52.810Z,12.70
2018-09-22T01:30:20.962Z,12.70
2018-09-22T01:32:49.119Z,12.60
2018-09-22T01:35:17.253Z,12.50
2018-09-22T01:37:45.400Z,12.50
2018-09-22T01:40:13.544Z,12.40
2018-09-22T01:42:41.718Z,12.30
2018-09-22T01:45:09.873Z,12.30
2018-09-22T01:47:38.045Z,12.30
2018-09-22T01:50:06.307Z,12.30
2018-09-22T01:52:34.561Z,12.20
2018-09-22T01:55:02.666Z,12.30
2018-09-22T01:57:30.841Z,12.20
2018-09-22T01:59:59.770Z,12.20
2018-09-22T02:02:27.929Z,12.30
2018-09-22T02:04:56.109Z,12.30
2018-09-22T02:07:24.261Z,12.20
2018-09-22T02:09:52.487Z,12.20
2018-09-22T02:12:20.668Z,12.20
2018-09-22T02:14:48.852Z,12.20
2018-09-22T02:17:17.007Z,12.20
2018-09-22T02:19:45.152Z,12.20
2018-09-22T02:22:13.352Z,12.40
2018-09-22T02:24:41.537Z,12.40
2018-09-22T02:27:09.701Z,12.50
2018-09-22T02:29:37.873Z,12.50
2018-09-22T02:32:06.177Z,12.50
2018-09-22T02:34:34.363Z,12.50
2018-09-22T02:37:02.554Z,12.60
2018-09-22T02:39:30.702Z,12.60
2018-09-22T02:41:58.841Z,12.70
2018-09-22T02:44:26.984Z,12.70
2018-09-22T02:46:55.125Z,12.80
2018-09-22T02:49:23.268Z,12.80
2018-09-22T02:51:51.453Z,12.70
2018-09-22T02:54:19.706Z,12.60
2018-09-22T02:56:47.845Z,12.60
2018-09-22T02:59:15.987Z,12.50
2018-09-22T03:01:44.156Z,12.40
2018-09-22T03:04:12.286Z,12.50
2018-09-22T03:06:40.431Z,12.40
2018-09-22T03:09:10.030Z,12.50
2018-09-22T03:11:38.162Z,12.50
2018-09-22T03:14:06.461Z,12.60
2018-09-22T03:16:34.609Z,12.50
2018-09-22T03:19:02.772Z,12.40
2018-09-22T03:21:30.902Z,12.30
2018-09-22T03:23:59.044Z,12.30
2018-09-22T03:26:27.222Z,12.30
2018-09-22T03:28:55.366Z,12.40
2018-09-22T03:31:23.502Z,12.20
2018-09-22T03:33:51.637Z,12.00
2018-09-22T03:36:19.839Z,11.90
2018-09-22T03:38:47.986Z,11.70
2018-09-22T03:41:16.173Z,11.80
2018-09-22T03:43:44.362Z,11.70
2018-09-22T03:46:12.506Z,11.50
2018-09-22T03:48:40.693Z,11.50
2018-09-22T03:51:08.886Z,11.40
2018-09-22T03:53:37.026Z,11.40
2018-09-22T03:56:05.185Z,11.40
2018-09-22T03:58:33.321Z,11.40
2018-09-22T04:01:01.466Z,11.40
2018-09-22T04:03:29.603Z,11.50
2018-09-22T04:05:57.728Z,11.50
2018-09-22T04:08:25.856Z,11.50
2018-09-22T04:10:54.012Z,11.40
2018-09-22T04:13:22.135Z,11.40
2018-09-22T04:15:50.314Z,11.30
2018-09-22T04:18:18.456Z,11.30
2018-09-22T04:20:46.585Z,11.30
2018-09-22T04:23:14.747Z,11.30
2018-09-22T04:25:42.890Z,11.30
2018-09-22T04:28:11.027Z,11.30
2018-09-22T04:30:39.181Z,11.20
2018-09-22T04:33:07.323Z,11.10
2018-09-22T04:35:35.458Z,11.40
2018-09-22T04:38:03.800Z,11.50
2018-09-22T04:40:31.974Z,11.70
2018-09-22T04:43:00.153Z,12.10
2018-09-22T04:45:28.310Z,12.20
2018-09-22T04:47:56.470Z,12.30
2018-09-22T04:50:24.721Z,12.30
2018-09-22T04:52:52.890Z,12.40
2018-09-22T04:55:21.061Z,12.40
2018-09-22T04:57:49.221Z,12.30
2018-09-22T05:00:17.393Z,12.40
2018-09-22T05:02:45.565Z,12.40
2018-09-22T05:05:13.742Z,12.30
2018-09-22T05:07:41.918Z,12.40
2018-09-22T05:10:10.073Z,12.30
2018-09-22T05:12:38.245Z,12.30
2018-09-22T05:15:06.439Z,12.40
2018-09-22T05:17:34.646Z,12.40
2018-09-22T05:20:02.810Z,12.40
2018-09-22T05:22:30.973Z,12.40
2018-09-22T05:24:59.146Z,12.80
2018-09-22T05:27:27.452Z,12.90
2018-09-22T05:29:55.621Z,12.70
2018-09-22T05:32:23.773Z,12.90
2018-09-22T05:34:52.013Z,13.00
2018-09-22T05:37:20.190Z,12.80
2018-09-22T05:39:48.709Z,12.80
2018-09-22T05:42:16.952Z,12.70
2018-09-22T05:44:45.186Z,12.90
2018-09-22T05:47:13.568Z,12.90
2018-09-22T05:49:41.740Z,13.10
2018-09-22T05:52:09.990Z,12.70
2018-09-22T05:54:38.193Z,13.10
2018-09-22T05:57:06.526Z,12.70
2018-09-22T05:59:34.741Z,12.70
2018-09-22T06:02:02.899Z,12.90
2018-09-22T06:04:31.061Z,13.10
2018-09-22T06:06:59.613Z,13.00
2018-09-22T06:09:27.793Z,13.10
2018-09-22T06:11:56.047Z,13.00
2018-09-22T06:14:24.301Z,12.90
2018-09-22T06:16:52.514Z,12.70
2018-09-22T06:19:20.702Z,12.70
2018-09-22T06:21:48.857Z,12.90
2018-09-22T06:24:17.013Z,13.10
2018-09-22T06:26:46.337Z,13.30
2018-09-22T06:29:14.541Z,13.40
2018-09-22T06:31:42.757Z,13.40
2018-09-22T06:34:11.054Z,13.50
2018-09-22T06:36:39.226Z,13.60
2018-09-22T06:39:08.737Z,13.60
2018-09-22T06:41:37.065Z,13.60
2018-09-22T06:44:05.211Z,13.50
2018-09-22T06:46:33.461Z,13.60
2018-09-22T06:49:01.677Z,13.50
2018-09-22T06:51:29.862Z,13.50
2018-09-22T06:53:58.038Z,13.70
2018-09-22T06:56:26.184Z,13.80
2018-09-22T06:58:54.318Z,13.90
2018-09-22T07:01:22.489Z,13.90
2018-09-22T07:03:50.801Z,13.90
2018-09-22T07:06:19.029Z,14.00
2018-09-22T07:08:47.113Z,14.00
2018-09-22T07:11:15.296Z,14.10
2018-09-22T07:13:43.461Z,14.30
2018-09-22T07:16:11.616Z,14.20
2018-09-22T07:18:39.740Z,14.40
2018-09-22T07:21:09.140Z,14.50
2018-09-22T07:23:37.312Z,14.60
2018-09-22T07:26:05.773Z,14.80
2018-09-22T07:28:34.313Z,14.80
2018-09-22T07:31:02.490Z,14.90
2018-09-22T07:33:30.621Z,14.70
2018-09-22T07:35:59.095Z,14.60
2018-09-22T07:38:31.181Z,14.50
2018-09-22T07:40:59.330Z,14.80
2018-09-22T07:43:27.972Z,14.50
2018-09-22T07:45:56.124Z,15.00
2018-09-22T07:48:24.267Z,14.70
2018-09-22T07:50:52.457Z,14.70
2018-09-22T07:53:24.293Z,14.70
2018-09-22T07:55:52.458Z,14.90
2018-09-22T07:58:20.600Z,15.10
2018-09-22T08:00:48.807Z,14.80
2018-09-22T08:03:16.950Z,15.20
2018-09-22T08:05:45.108Z,15.30
2018-09-22T08:08:13.252Z,15.50
2018-09-22T08:10:41.393Z,15.70
2018-09-22T08:13:09.546Z,15.50
2018-09-22T08:15:37.710Z,15.60
2018-09-22T08:18:05.857Z,15.80
2018-09-22T08:20:33.998Z,15.60
2018-09-22T08:23:02.148Z,16.10
2018-09-22T08:25:30.316Z,16.80
2018-09-22T08:27:58.574Z,16.70
2018-09-22T08:30:26.783Z,17.30
2018-09-22T08:32:54.950Z,17.80
2018-09-22T08:35:23.073Z,18.20
2018-09-22T08:37:51.217Z,18.20
2018-09-22T08:40:19.397Z,17.90
2018-09-22T08:42:47.584Z,17.50
2018-09-22T08:45:19.066Z,17.70
2018-09-22T08:47:47.251Z,17.70
2018-09-22T08:50:15.410Z,18.00
2018-09-22T08:52:43.574Z,16.80
2018-09-22T08:55:11.743Z,18.00
2018-09-22T08:57:39.927Z,18.10
2018-09-22T09:00:08.165Z,18.30
2018-09-22T09:02:36.331Z,18.80
2018-09-22T09:05:04.593Z,17.70
2018-09-22T09:07:32.701Z,17.70
2018-09-22T09:10:00.945Z,17.20
2018-09-22T09:12:29.144Z,17.20
2018-09-22T09:14:57.334Z,18.40
2018-09-22T09:17:25.524Z,18.70
2018-09-22T09:19:53.710Z,19.00
2018-09-22T09:22:21.910Z,19.10
2018-09-22T09:24:50.085Z,19.30
2018-09-22T09:27:18.280Z,19.30
2018-09-22T09:29:46.413Z,19.10
2018-09-22T09:32:16.703Z,19.40
2018-09-22T09:34:45.498Z,19.10
2018-09-22T09:37:13.666Z,19.30
2018-09-22T09:39:41.848Z,18.10
2018-09-22T09:42:10.021Z,17.40
2018-09-22T09:44:38.205Z,18.40
2018-09-22T09:47:06.393Z,18.50
2018-09-22T09:49:34.575Z,18.60
2018-09-22T09:52:02.753Z,18.60
2018-09-22T09:54:30.942Z,18.60
2018-09-22T09:56:59.090Z,19.00
2018-09-22T09:59:27.249Z,19.10
2018-09-22T10:01:55.421Z,18.60
2018-09-22T10:04:23.616Z,18.50
2018-09-22T10:06:51.765Z,18.70
2018-09-22T10:09:19.941Z,18.50
2018-09-22T10:11:48.937Z,18.60
2018-09-22T10:14:17.117Z,17.90
2018-09-22T10:16:45.297Z,18.50
2018-09-22T10:19:13.467Z,19.30
2018-09-22T10:21:41.642Z,19.00
2018-09-22T10:24:09.810Z,19.80
2018-09-22T10:26:37.968Z,20.30
2018-09-22T10:29:06.145Z,20.70
2018-09-22T10:31:34.403Z,21.20
2018-09-22T10:34:02.582Z,20.60
2018-09-22T10:36:30.832Z,20.60
2018-09-22T10:38:59.001Z,18.90
2018-09-22T10:41:27.254Z,20.20
2018-09-22T10:43:55.465Z,19.70
2018-09-22T10:46:23.641Z,19.50
2018-09-22T10:48:51.851Z,19.00
2018-09-22T10:51:20.010Z,18.80
2018-09-22T10:53:48.197Z,19.90
2018-09-22T10:56:16.393Z,20.40
2018-09-22T10:58:44.863Z,21.10
2018-09-22T11:01:13.023Z,20.70
2018-09-22T11:03:41.200Z,19.40
2018-09-22T11:06:09.377Z,19.90
2018-09-22T11:08:37.784Z,18.80
2018-09-22T11:11:06.076Z,19.10
2018-09-22T11:13:34.262Z,19.90
2018-09-22T11:16:02.433Z,19.20
2018-09-22T11:18:30.616Z,18.40
2018-09-22T11:20:58.806Z,18.80
2018-09-22T11:23:27.000Z,18.80
2018-09-22T11:25:55.168Z,18.60
2018-09-22T11:28:23.425Z,18.40
2018-09-22T11:30:51.665Z,18.30
2018-09-22T11:33:19.849Z,18.80
2018-09-22T11:35:48.025Z,20.40
2018-09-22T11:38:16.319Z,20.30
2018-09-22T11:40:44.589Z,20.60
2018-09-22T11:43:12.753Z,20.10
2018-09-22T11:45:40.926Z,18.90
2018-09-22T11:48:09.097Z,19.10
2018-09-22T11:50:37.305Z,19.90
2018-09-22T11:53:06.108Z,19.60
2018-09-22T11:55:34.329Z,22.20
2018-09-22T11:58:02.535Z,22.20
2018-09-22T12:00:30.694Z,21.30
2018-09-22T12:02:58.881Z,21.70
2018-09-22T12:05:27.049Z,22.30
2018-09-22T12:07:55.275Z,19.50
2018-09-22T12:10:23.461Z,19.70
2018-09-22T12:12:51.645Z,20.60
2018-09-22T12:15:19.835Z,20.10
2018-09-22T12:17:48.020Z,20.40
2018-09-22T12:20:16.228Z,21.40
2018-09-22T12:22:44.435Z,21.00
2018-09-22T12:25:12.645Z,20.40
2018-09-22T12:27:41.019Z,20.00
2018-09-22T12:30:09.216Z,20.10
2018-09-22T12:32:37.425Z,21.10
2018-09-22T12:35:05.611Z,21.90
2018-09-22T12:37:35.476Z,22.40
2018-09-22T12:40:03.832Z,22.50
2018-09-22T12:42:32.016Z,21.50
2018-09-22T12:45:00.173Z,20.60
2018-09-22T12:47:28.354Z,20.80
2018-09-22T12:49:56.595Z,22.00
2018-09-22T12:52:25.130Z,22.60
2018-09-22T12:54:53.314Z,23.10
2018-09-22T12:57:21.491Z,22.60
2018-09-22T12:59:49.695Z,22.60
2018-09-22T13:02:18.124Z,21.10
2018-09-22T13:04:46.294Z,21.00
2018-09-22T13:07:14.462Z,21.30
2018-09-22T13:09:43.523Z,22.00
2018-09-22T13:12:11.696Z,22.50
2018-09-22T13:14:39.866Z,21.70
2018-09-22T13:17:09.181Z,21.90
2018-09-22T13:19:37.349Z,20.50
2018-09-22T13:22:05.669Z,21.70
2018-09-22T13:24:33.837Z,20.80
2018-09-22T13:27:02.002Z,20.30
2018-09-22T13:29:30.454Z,20.30
2018-09-22T13:31:58.806Z,19.70
2018-09-22T13:34:26.993Z,19.40
2018-09-22T13:36:55.174Z,19.50
2018-09-22T13:39:23.855Z,19.70
2018-09-22T13:41:52.017Z,20.00
2018-09-22T13:44:20.199Z,19.80
2018-09-22T13:46:48.601Z,20.70
2018-09-22T13:49:16.757Z,21.20
2018-09-22T13:51:45.050Z,21.30
2018-09-22T13:54:13.241Z,21.00
2018-09-22T13:56:41.409Z,20.20
2018-09-22T13:59:09.980Z,20.60
2018-09-22T14:01:38.190Z,20.00
2018-09-22T14:04:06.493Z,20.50
2018-09-22T14:06:34.704Z,20.90
2018-09-22T14:09:02.996Z,20.60
2018-09-22T14:11:31.168Z,20.60
2018-09-22T14:13:59.336Z,20.60
2018-09-22T14:16:27.505Z,21.40
2018-09-22T14:18:55.696Z,21.50
2018-09-22T14:21:23.916Z,20.80
2018-09-22T14:23:52.050Z,20.70
2018-09-22T14:26:20.207Z,19.90
2018-09-22T14:28:48.383Z,20.00
2018-09-22T14:31:16.614Z,20.20
2018-09-22T14:33:44.789Z,19.80
2018-09-22T14:36:13.037Z,20.30
2018-09-22T14:38:41.285Z,20.40
2018-09-22T14:41:09.449Z,20.40
2018-09-22T14:43:37.625Z,20.30
2018-09-22T14:46:05.794Z,19.90
2018-09-22T14:48:33.957Z,19.80
2018-09-22T14:51:02.151Z,20.10
2018-09-22T14:53:30.306Z,19.80
2018-09-22T14:55:58.493Z,19.90
2018-09-22T14:58:26.664Z,20.00
2018-09-22T15:00:54.838Z,20.00
2018-09-22T15:03:23.009Z,20.00
2018-09-22T15:05:51.182Z,19.90
2018-09-22T15:08:19.461Z,19.60
2018-09-22T15:10:47.620Z,19.60
2018-09-22T15:13:15.793Z,19.70
2018-09-22T15:15:43.962Z,19.70
2018-09-22T15:18:12.155Z,19.70
2018-09-22T15:20:40.343Z,19.60
2018-09-22T15:23:08.713Z,19.20
2018-09-22T15:25:36.895Z,19.30
2018-09-22T15:28:05.101Z,19.30
2018-09-22T15:30:33.600Z,19.30
2018-09-22T15:33:01.762Z,19.50
2018-09-22T15:35:29.939Z,19.50
2018-09-22T15:37:58.105Z,19.40
2018-09-22T15:40:26.290Z,19.30
2018-09-22T15:42:54.475Z,19.20
2018-09-22T15:45:22.660Z,19.10
2018-09-22T15:47:50.817Z,19.10
2018-09-22T15:50:18.987Z,19.10
2018-09-22T15:52:47.140Z,19.10
2018-09-22T15:55:15.316Z,19.10
2018-09-22T15:57:43.490Z,19.00
2018-09-22T16:00:11.709Z,19.00
2018-09-22T16:02:39.881Z,19.00
2018-09-22T16:05:08.048Z,18.90
2018-09-22T16:07:36.305Z,18.80
2018-09-22T16:10:04.619Z,18.60
2018-09-22T16:12:32.794Z,18.60
2018-09-22T16:15:00.957Z,18.50
2018-09-22T16:17:29.217Z,18.50
2018-09-22T16:19:57.542Z,18.10
2018-09-22T16:22:25.782Z,18.10
2018-09-22T16:24:53.982Z,18.00
2018-09-22T16:27:22.723Z,18.00
2018-09-22T16:29:50.906Z,18.10
2018-09-22T16:32:19.086Z,18.00
2018-09-22T16:34:47.277Z,18.00
2018-09-22T16:37:15.452Z,17.90
2018-09-22T16:39:43.804Z,17.90
2018-09-22T16:42:12.001Z,17.80
2018-09-22T16:44:40.158Z,17.80
2018-09-22T16:47:08.325Z,17.60
2018-09-22T16:49:36.533Z,17.60
2018-09-22T16:52:04.680Z,17.50
2018-09-22T16:54:32.849Z,17.40
2018-09-22T16:57:01.040Z,17.20
2018-09-22T16:59:29.188Z,17.20
2018-09-22T17:01:57.342Z,17.10
2018-09-22T17:04:25.497Z,17.10
2018-09-22T17:06:53.670Z,17.10
2018-09-22T17:09:21.845Z,17.00
2018-09-22T17:11:50.031Z,16.90
2018-09-22T17:14:18.191Z,16.90
2018-09-22T17:16:46.373Z,16.80
2018-09-22T17:19:14.633Z,16.70
2018-09-22T17:21:42.821Z,16.60
2018-09-22T17:24:11.156Z,16.50
2018-09-22T17:26:39.338Z,16.40
2018-09-22T17:29:07.493Z,16.40
2018-09-22T17:31:35.813Z,16.40
2018-09-22T17:34:03.947Z,16.40
2018-09-22T17:36:32.097Z,16.40
2018-09-22T17:39:00.405Z,16.30
2018-09-22T17:41:28.656Z,16.30
2018-09-22T17:43:57.215Z,16.30
2018-09-22T17:46:25.429Z,16.30
2018-09-22T17:48:53.577Z,16.30
2018-09-22T17:51:21.757Z,16.20
2018-09-22T17:53:49.941Z,16.20
2018-09-22T17:56:18.177Z,16.10
2018-09-22T17:58:46.335Z,16.30
2018-09-22T18:01:14.507Z,16.30
2018-09-22T18:03:42.682Z,16.30
2018-09-22T18:06:10.851Z,16.20
2018-09-22T18:08:39.059Z,16.10
2018-09-22T18:11:07.305Z,16.20
2018-09-22T18:13:35.501Z,16.20
2018-09-22T18:16:03.661Z,16.10
2018-09-22T18:18:31.844Z,16.10
2018-09-22T18:21:00.013Z,16.00
2018-09-22T18:23:28.174Z,16.10
2018-09-22T18:25:56.314Z,16.00
2018-09-22T18:28:24.481Z,16.10
2018-09-22T18:30:52.645Z,16.00
2018-09-22T18:33:20.945Z,15.90
2018-09-22T18:35:49.118Z,15.90
2018-09-22T18:38:17.287Z,15.80
2018-09-22T18:40:45.751Z,15.80
2018-09-22T18:43:13.921Z,15.70
2018-09-22T18:45:42.093Z,15.70
2018-09-22T18:48:10.317Z,15.60
2018-09-22T18:50:38.478Z,15.70
2018-09-22T18:53:06.676Z,15.70
2018-09-22T18:55:34.890Z,15.70
2018-09-22T18:58:03.013Z,15.50
2018-09-22T19:00:31.173Z,15.40
2018-09-22T19:02:59.349Z,15.30
2018-09-22T19:05:27.505Z,15.20
2018-09-22T19:07:55.695Z,15.10
2018-09-22T19:10:23.828Z,14.80
2018-09-22T19:12:52.001Z,14.80
2018-09-22T19:15:24.366Z,14.80
2018-09-22T19:17:57.267Z,14.70
2018-09-22T19:20:34.541Z,14.70
2018-09-22T19:23:06.813Z,14.70
2018-09-22T19:25:37.434Z,14.70
2018-09-22T19:28:14.333Z,14.80
2018-09-22T19:30:50.784Z,14.70
2018-09-22T19:33:25.007Z,14.80
2018-09-22T19:36:04.762Z,14.70
2018-09-22T19:38:41.618Z,14.70
2018-09-22T19:41:14.188Z,14.60
2018-09-22T19:43:46.977Z,14.60
2018-09-22T19:46:20.875Z,14.60
2018-09-22T19:48:52.449Z,14.60
2018-09-22T19:51:22.551Z,14.60
2018-09-22T19:53:51.251Z,14.70
2018-09-22T19:56:19.465Z,14.60
2018-09-22T19:58:47.646Z,14.70
2018-09-22T20:01:15.834Z,14.70
2018-09-22T20:03:44.013Z,14.70
2018-09-22T20:06:12.163Z,14.60
2018-09-22T20:08:40.337Z,14.40
2018-09-22T20:11:08.493Z,14.30
2018-09-22T20:13:36.677Z,14.30
2018-09-22T20:16:04.873Z,14.30
2018-09-22T20:18:33.167Z,14.30
2018-09-22T20:21:01.344Z,14.30
2018-09-22T20:23:29.535Z,14.20
2018-09-22T20:25:57.701Z,14.20
2018-09-22T20:28:25.885Z,14.10
2018-09-22T20:30:54.181Z,14.00
2018-09-22T20:33:22.406Z,14.10
2018-09-22T20:35:50.606Z,13.90
2018-09-22T20:38:18.723Z,14.00
2018-09-22T20:40:46.880Z,14.10
2018-09-22T20:43:15.154Z,14.10
2018-09-22T20:45:43.312Z,14.10
2018-09-22T20:48:11.461Z,14.10
2018-09-22T20:50:39.745Z,14.10
2018-09-22T20:53:07.832Z,14.00
2018-09-22T20:55:36.079Z,14.00
2018-09-22T20:58:04.220Z,13.90
2018-09-22T21:00:32.347Z,13.80
2018-09-22T21:03:00.600Z,13.80
2018-09-22T21:05:28.757Z,13.90
2018-09-22T21:07:56.909Z,13.80
2018-09-22T21:10:25.061Z,13.70
2018-09-22T21:12:53.193Z,13.60
2018-09-22T21:15:21.329Z,13.60
2018-09-22T21:17:49.449Z,13.50
2018-09-22T21:20:17.566Z,13.50
2018-09-22T21:22:45.685Z,13.40
2018-09-22T21:25:13.848Z,13.40
2018-09-22T21:27:41.972Z,13.40
2018-09-22T21:30:10.113Z,13.40
2018-09-22T21:32:38.268Z,13.40
2018-09-22T21:35:07.152Z,13.40
2018-09-22T21:37:36.249Z,13.40
2018-09-22T21:40:04.425Z,13.40
2018-09-22T21:42:32.585Z,13.40
2018-09-22T21:45:00.739Z,13.40
2018-09-22T21:47:28.916Z,13.40
2018-09-22T21:49:57.088Z,13.30
2018-09-22T21:52:25.253Z,13.20
2018-09-22T21:54:53.444Z,13.10
2018-09-22T21:57:21.608Z,13.10
2018-09-22T21:59:49.772Z,13.10
2018-09-22T22:02:17.945Z,13.10
2018-09-22T22:04:46.104Z,13.10
2018-09-22T22:07:14.264Z,13.10
2018-09-22T22:09:42.428Z,13.10
2018-09-22T22:12:10.600Z,13.10
2018-09-22T22:14:38.752Z,13.10
2018-09-22T22:17:06.920Z,13.00
2018-09-22T22:19:35.109Z,13.10
2018-09-22T22:22:03.285Z,13.10
2018-09-22T22:24:31.448Z,13.10
2018-09-22T22:26:59.661Z,13.10
2018-09-22T22:29:27.832Z,13.10
2018-09-22T22:31:55.980Z,13.10
2018-09-22T22:34:24.184Z,13.10
2018-09-22T22:36:52.369Z,13.00
2018-09-22T22:39:20.528Z,13.00
2018-09-22T22:41:48.676Z,12.90
2018-09-22T22:44:16.852Z,12.90
2018-09-22T22:46:45.033Z,12.90
2018-09-22T22:49:13.174Z,13.00
2018-09-22T22:51:41.319Z,13.10
2018-09-22T22:54:09.466Z,13.10
2018-09-22T22:56:37.598Z,13.10
2018-09-22T22:59:05.810Z,13.10
2018-09-22T23:01:33.948Z,13.00
2018-09-22T23:04:02.099Z,13.10
2018-09-22T23:06:30.262Z,13.20
2018-09-22T23:08:58.412Z,13.30
2018-09-22T23:11:26.569Z,13.30
2018-09-22T23:13:54.727Z,13.20
2018-09-22T23:16:22.869Z,13.20
2018-09-22T23:18:51.029Z,13.20
2018-09-22T23:21:19.177Z,13.20
2018-09-22T23:23:47.346Z,13.00
2018-09-22T23:26:15.513Z,13.10
2018-09-22T23:28:43.658Z,13.50
2018-09-22T23:31:11.792Z,13.70
2018-09-22T23:33:39.952Z,13.80
2018-09-22T23:36:08.105Z,13.80
2018-09-22T23:38:36.445Z,13.70
2018-09-22T23:41:04.601Z,13.80
2018-09-22T23:43:32.757Z,13.80
2018-09-22T23:46:00.930Z,13.70
2018-09-22T23:48:29.113Z,13.60
2018-09-22T23:50:57.270Z,13.60
2018-09-22T23:53:25.420Z,13.50
2018-09-22T23:55:53.560Z,13.40
2018-09-22T23:58:21.729Z,13.30
